createdAt,value
2023-04-11T00:00:57.992Z,2.58
2023-04-11T00:03:28.284Z,2.33
2023-04-11T00:05:55.459Z,2.70
2023-04-11T00:08:23.638Z,2.65
2023-04-11T00:10:50.349Z,2.70
2023-04-11T00:13:19.607Z,2.38
2023-04-11T00:15:46.281Z,2.65
2023-04-11T00:18:12.808Z,2.30
2023-04-11T00:20:39.287Z,2.17
2023-04-11T00:23:06.016Z,2.47
2023-04-11T00:25:33.102Z,2.75
2023-04-11T00:27:59.724Z,2.28
2023-04-11T00:30:27.157Z,2.55
2023-04-11T00:32:54.108Z,1.85
2023-04-11T00:35:20.763Z,2.80
2023-04-11T00:37:54.167Z,2.30
2023-04-11T00:40:20.846Z,1.95
2023-04-11T00:42:50.080Z,2.47
2023-04-11T00:45:16.904Z,2.10
2023-04-11T00:47:43.899Z,2.17
2023-04-11T00:50:14.307Z,2.20
2023-04-11T00:52:41.629Z,1.98
2023-04-11T00:55:11.038Z,2.28
2023-04-11T00:57:38.166Z,2.08
2023-04-11T01:00:05.325Z,2.00
2023-04-11T01:02:33.383Z,2.42
2023-04-11T01:05:00.882Z,2.70
2023-04-11T01:07:29.407Z,2.83
2023-04-11T01:09:56.213Z,2.90
2023-04-11T01:12:22.945Z,2.83
2023-04-11T01:14:49.520Z,3.10
2023-04-11T01:17:16.176Z,3.08
2023-04-11T01:19:43.360Z,2.33
2023-04-11T01:22:11.405Z,2.80
2023-04-11T01:24:37.997Z,2.05
2023-04-11T01:27:06.228Z,2.63
2023-04-11T01:29:35.103Z,2.60
2023-04-11T01:32:01.852Z,2.50
2023-04-11T01:34:29.879Z,2.40
2023-04-11T01:36:57.769Z,2.17
2023-04-11T01:39:24.590Z,2.20
2023-04-11T01:41:51.865Z,2.38
2023-04-11T01:44:21.010Z,2.22
2023-04-11T01:46:47.890Z,2.00
2023-04-11T01:49:15.796Z,1.92
2023-04-11T01:51:43.458Z,1.67
2023-04-11T01:54:10.252Z,1.70
2023-04-11T01:56:39.394Z,1.50
2023-04-11T01:59:06.741Z,1.55
2023-04-11T02:01:34.504Z,1.63
2023-04-11T02:04:01.676Z,1.50
2023-04-11T02:06:28.331Z,1.30
2023-04-11T02:08:55.136Z,1.50
2023-04-11T02:11:22.215Z,1.38
2023-04-11T02:13:49.194Z,1.27
2023-04-11T02:16:17.994Z,1.38
2023-04-11T02:18:48.937Z,1.13
2023-04-11T02:21:15.501Z,1.23
2023-04-11T02:23:42.137Z,1.42
2023-04-11T02:26:08.838Z,1.23
2023-04-11T02:28:36.809Z,1.33
2023-04-11T02:31:03.892Z,1.17
2023-04-11T02:33:30.730Z,1.65
2023-04-11T02:35:58.326Z,1.50
2023-04-11T02:38:24.891Z,1.50
2023-04-11T02:40:51.395Z,1.23
2023-04-11T02:43:17.917Z,1.30
2023-04-11T02:45:44.427Z,1.27
2023-04-11T02:48:14.001Z,1.02
2023-04-11T02:50:44.190Z,1.30
2023-04-11T02:53:12.485Z,1.20
2023-04-11T02:55:46.007Z,1.38
2023-04-11T02:58:17.957Z,0.93
2023-04-11T03:00:46.292Z,1.42
2023-04-11T03:03:13.720Z,1.25
2023-04-11T03:05:43.797Z,1.20
2023-04-11T03:08:11.886Z,1.20
2023-04-11T03:10:44.207Z,1.60
2023-04-11T03:13:11.490Z,1.20
2023-04-11T03:15:38.086Z,0.98
2023-04-11T03:18:07.803Z,1.30
2023-04-11T03:20:37.332Z,1.05
2023-04-11T03:23:04.010Z,1.10
2023-04-11T03:25:31.304Z,0.93
2023-04-11T03:27:58.559Z,0.95
2023-04-11T03:30:25.601Z,0.80
2023-04-11T03:32:53.232Z,0.80
2023-04-11T03:35:20.792Z,0.73
2023-04-11T03:37:49.434Z,0.90
2023-04-11T03:40:18.453Z,0.77
2023-04-11T03:42:51.027Z,0.80
2023-04-11T03:45:21.731Z,0.90
2023-04-11T03:47:50.685Z,0.68
2023-04-11T03:50:22.302Z,0.85
2023-04-11T03:52:54.991Z,0.82
2023-04-11T03:55:21.856Z,1.00
2023-04-11T03:57:48.465Z,0.90
2023-04-11T04:00:19.970Z,0.90
2023-04-11T04:02:58.483Z,0.50
2023-04-11T04:05:25.917Z,0.70
2023-04-11T04:07:54.065Z,0.65
2023-04-11T04:10:34.041Z,0.60
2023-04-11T04:13:02.773Z,0.88
2023-04-11T04:15:36.440Z,0.77
2023-04-11T04:18:04.263Z,0.80
2023-04-11T04:20:51.262Z,0.60
2023-04-11T04:23:20.098Z,0.80
2023-04-11T04:26:13.156Z,0.57
2023-04-11T04:28:46.283Z,0.95
2023-04-11T04:31:22.344Z,0.60
2023-04-11T04:33:50.611Z,0.80
2023-04-11T04:36:22.035Z,0.57
2023-04-11T04:38:50.387Z,1.00
2023-04-11T04:41:24.353Z,0.80
2023-04-11T04:43:58.612Z,0.90
2023-04-11T04:46:43.596Z,0.95
2023-04-11T04:49:11.113Z,1.05
2023-04-11T04:51:38.541Z,0.93
2023-04-11T04:54:05.517Z,1.40
2023-04-11T04:56:32.170Z,0.90
2023-04-11T04:58:59.813Z,1.02
2023-04-11T05:01:28.258Z,0.90
2023-04-11T05:03:59.295Z,1.05
2023-04-11T05:06:40.369Z,1.45
2023-04-11T05:09:07.095Z,1.30
2023-04-11T05:11:35.343Z,1.40
2023-04-11T05:14:03.468Z,1.00
2023-04-11T05:16:30.093Z,1.08
2023-04-11T05:18:58.692Z,1.02
2023-04-11T05:21:26.801Z,1.27
2023-04-11T05:23:53.639Z,1.45
2023-04-11T05:26:20.927Z,1.30
2023-04-11T05:28:47.879Z,1.98
2023-04-11T05:31:18.266Z,1.40
2023-04-11T05:33:45.713Z,1.83
2023-04-11T05:36:15.332Z,1.85
2023-04-11T05:38:43.411Z,1.73
2023-04-11T05:41:11.348Z,1.38
2023-04-11T05:43:38.426Z,1.40
2023-04-11T05:46:06.215Z,1.52
2023-04-11T05:48:32.775Z,1.30
2023-04-11T05:50:59.817Z,1.27
2023-04-11T05:53:26.410Z,1.25
2023-04-11T05:55:53.077Z,1.40
2023-04-11T05:58:19.681Z,1.52
2023-04-11T06:00:46.304Z,1.33
2023-04-11T06:03:13.246Z,1.70
2023-04-11T06:05:40.011Z,1.70
2023-04-11T06:08:07.556Z,2.10
2023-04-11T06:10:35.341Z,1.80
2023-04-11T06:13:02.024Z,1.50
2023-04-11T06:15:29.479Z,2.00
2023-04-11T06:17:56.113Z,1.88
2023-04-11T06:20:23.322Z,1.67
2023-04-11T06:22:52.513Z,1.92
2023-04-11T06:25:20.621Z,1.85
2023-04-11T06:27:47.915Z,1.70
2023-04-11T06:30:14.898Z,1.77
2023-04-11T06:32:41.513Z,2.20
2023-04-11T06:35:08.886Z,2.13
2023-04-11T06:37:35.621Z,1.63
2023-04-11T06:40:02.461Z,1.77
2023-04-11T06:42:28.958Z,1.92
2023-04-11T06:44:57.611Z,1.70
2023-04-11T06:47:24.262Z,1.80
2023-04-11T06:49:50.815Z,1.80
2023-04-11T06:52:17.395Z,1.50
2023-04-11T06:54:43.900Z,2.10
2023-04-11T06:57:10.592Z,1.42
2023-04-11T06:59:37.425Z,1.52
2023-04-11T07:02:04.120Z,1.17
2023-04-11T07:04:30.976Z,1.38
2023-04-11T07:06:57.654Z,0.85
2023-04-11T07:09:24.107Z,0.95
2023-04-11T07:11:50.826Z,1.10
2023-04-11T07:14:17.362Z,0.93
2023-04-11T07:16:43.863Z,1.00
2023-04-11T07:19:10.416Z,0.90
2023-04-11T07:21:38.258Z,1.17
2023-04-11T07:24:08.395Z,0.75
2023-04-11T07:26:38.458Z,0.70
2023-04-11T07:29:05.502Z,0.90
2023-04-11T07:31:33.728Z,0.88
2023-04-11T07:34:00.329Z,0.75
2023-04-11T07:36:27.376Z,0.77
2023-04-11T07:38:54.038Z,0.70
2023-04-11T07:41:20.668Z,0.82
2023-04-11T07:43:47.146Z,0.73
2023-04-11T07:46:15.073Z,0.85
2023-04-11T07:48:42.332Z,1.05
2023-04-11T07:51:09.141Z,1.00
2023-04-11T07:53:36.660Z,1.08
2023-04-11T07:56:04.897Z,0.85
2023-04-11T07:58:32.030Z,0.80
2023-04-11T08:00:58.779Z,0.90
2023-04-11T08:03:25.422Z,0.90
2023-04-11T08:05:53.159Z,0.93
2023-04-11T08:08:19.968Z,0.80
2023-04-11T08:10:46.602Z,0.82
2023-04-11T08:13:13.124Z,0.90
2023-04-11T08:15:39.994Z,0.77
2023-04-11T08:18:07.312Z,0.90
2023-04-11T08:20:33.941Z,0.50
2023-04-11T08:23:05.759Z,0.95
2023-04-11T08:25:34.078Z,0.85
2023-04-11T08:28:01.282Z,0.80
2023-04-11T08:30:27.824Z,0.70
2023-04-11T08:32:54.465Z,0.50
2023-04-11T08:35:21.063Z,0.77
2023-04-11T08:37:49.134Z,0.80
2023-04-11T08:40:16.541Z,1.65
2023-04-11T08:42:43.248Z,0.95
2023-04-11T08:45:10.384Z,1.00
2023-04-11T08:47:37.384Z,1.23
2023-04-11T08:50:05.600Z,1.10
2023-04-11T08:52:33.188Z,1.20
2023-04-11T08:55:00.106Z,1.50
2023-04-11T08:57:33.474Z,1.20
2023-04-11T09:00:15.296Z,1.48
2023-04-11T09:02:56.401Z,1.38
2023-04-11T09:05:31.143Z,1.60
2023-04-11T09:07:59.354Z,1.63
2023-04-11T09:10:29.400Z,1.50
2023-04-11T09:12:56.787Z,1.60
2023-04-11T09:15:25.672Z,1.85
2023-04-11T09:17:52.804Z,1.50
2023-04-11T09:20:31.884Z,1.70
2023-04-11T09:23:01.606Z,1.25
2023-04-11T09:25:28.270Z,0.95
2023-04-11T09:28:10.894Z,0.80
2023-04-11T09:30:37.725Z,1.30
2023-04-11T09:33:25.719Z,1.08
2023-04-11T09:35:54.360Z,0.95
2023-04-11T09:38:32.748Z,1.05
2023-04-11T09:41:04.243Z,1.13
2023-04-11T09:43:51.386Z,1.10
2023-04-11T09:46:20.763Z,1.02
2023-04-11T09:48:54.563Z,1.20
2023-04-11T09:51:35.138Z,1.10
2023-04-11T09:54:04.316Z,1.08
2023-04-11T09:56:31.708Z,1.40
2023-04-11T09:59:00.165Z,1.23
2023-04-11T10:01:27.455Z,0.90
2023-04-11T10:03:56.004Z,1.17
2023-04-11T10:06:38.964Z,0.93
2023-04-11T10:09:08.155Z,0.85
2023-04-11T10:11:36.069Z,1.15
2023-04-11T10:14:02.766Z,1.63
2023-04-11T10:16:32.501Z,1.60
2023-04-11T10:19:00.269Z,2.10
2023-04-11T10:21:32.946Z,1.85
2023-04-11T10:24:11.579Z,2.35
2023-04-11T10:26:51.841Z,1.88
2023-04-11T10:29:34.059Z,1.85
2023-04-11T10:32:10.767Z,1.60
2023-04-11T10:34:41.975Z,1.98
2023-04-11T10:37:09.999Z,2.10
2023-04-11T10:39:48.458Z,1.58
2023-04-11T10:42:31.698Z,1.40
2023-04-11T10:45:19.784Z,1.27
2023-04-11T10:47:58.691Z,1.20
2023-04-11T10:50:25.240Z,1.30
2023-04-11T10:53:00.013Z,1.42
2023-04-11T10:55:28.006Z,1.45
2023-04-11T10:58:16.357Z,1.17
2023-04-11T11:00:52.631Z,0.90
2023-04-11T11:03:22.978Z,1.10
2023-04-11T11:06:01.388Z,1.02
2023-04-11T11:08:33.615Z,1.33
2023-04-11T11:11:01.822Z,1.00
2023-04-11T11:13:55.936Z,1.05
2023-04-11T11:16:25.635Z,1.20
2023-04-11T11:18:56.669Z,1.10
2023-04-11T11:21:27.801Z,1.17
2023-04-11T11:24:04.652Z,1.17
2023-04-11T11:26:42.629Z,1.20
2023-04-11T11:29:10.570Z,0.68
2023-04-11T11:31:47.643Z,1.00
2023-04-11T11:34:27.172Z,1.25
2023-04-11T11:36:53.978Z,1.58
2023-04-11T11:39:21.967Z,1.20
2023-04-11T11:41:50.371Z,1.20
2023-04-11T11:44:26.694Z,1.02
2023-04-11T11:47:08.974Z,1.08
2023-04-11T11:49:49.869Z,0.90
2023-04-11T11:52:35.176Z,0.73
2023-04-11T11:55:06.138Z,0.60
2023-04-11T11:57:34.169Z,0.88
2023-04-11T12:00:02.159Z,0.95
2023-04-11T12:02:35.358Z,0.60
2023-04-11T12:05:07.768Z,0.90
2023-04-11T12:07:37.258Z,0.80
2023-04-11T12:10:11.500Z,0.85
2023-04-11T12:12:40.892Z,0.90
2023-04-11T12:15:21.059Z,1.20
2023-04-11T12:17:49.280Z,0.73
2023-04-11T12:20:16.339Z,0.90
2023-04-11T12:22:43.089Z,0.80
2023-04-11T12:25:14.374Z,0.60
2023-04-11T12:27:42.756Z,0.82
2023-04-11T12:30:10.955Z,0.68
2023-04-11T12:32:37.859Z,0.90
2023-04-11T12:35:06.032Z,0.75
2023-04-11T12:37:33.738Z,0.55
2023-04-11T12:40:00.937Z,0.73
2023-04-11T12:42:27.695Z,0.80
2023-04-11T12:44:54.636Z,0.90
2023-04-11T12:47:21.457Z,0.90
2023-04-11T12:49:49.455Z,0.88
2023-04-11T12:52:17.263Z,0.80
2023-04-11T12:54:43.886Z,0.75
2023-04-11T12:57:12.402Z,0.77
2023-04-11T12:59:39.470Z,0.75
2023-04-11T13:02:06.320Z,0.90
2023-04-11T13:04:33.095Z,0.80
2023-04-11T13:07:03.444Z,0.90
2023-04-11T13:09:31.586Z,0.60
2023-04-11T13:11:59.256Z,0.80
2023-04-11T13:14:25.779Z,0.73
2023-04-11T13:16:52.397Z,0.70
2023-04-11T13:19:19.141Z,0.60
2023-04-11T13:21:45.690Z,0.90
2023-04-11T13:24:12.481Z,0.73
2023-04-11T13:26:39.762Z,0.65
2023-04-11T13:29:07.366Z,0.80
2023-04-11T13:31:35.516Z,0.60
2023-04-11T13:34:02.757Z,0.73
2023-04-11T13:36:29.757Z,0.77
2023-04-11T13:38:57.388Z,1.00
2023-04-11T13:41:24.994Z,0.77
2023-04-11T13:43:52.654Z,0.90
2023-04-11T13:46:19.863Z,0.70
2023-04-11T13:48:46.396Z,1.10
2023-04-11T13:51:13.634Z,0.98
2023-04-11T13:53:40.163Z,1.00
2023-04-11T13:56:07.920Z,3.65
2023-04-11T13:58:35.139Z,1.40
2023-04-11T14:01:01.967Z,1.00
2023-04-11T14:03:33.359Z,1.30
2023-04-11T14:06:00.883Z,0.73
2023-04-11T14:08:28.729Z,1.23
2023-04-11T14:10:55.483Z,0.70
2023-04-11T14:13:22.287Z,1.00
2023-04-11T14:15:54.836Z,0.90
2023-04-11T14:18:31.960Z,1.02
2023-04-11T14:21:01.135Z,1.05
2023-04-11T14:23:28.834Z,0.80
2023-04-11T14:25:55.605Z,0.50
2023-04-11T14:28:22.355Z,0.47
2023-04-11T14:30:49.373Z,0.50
2023-04-11T14:33:16.341Z,0.63
2023-04-11T14:35:46.825Z,0.50
2023-04-11T14:38:15.335Z,0.70
2023-04-11T14:40:42.453Z,0.52
2023-04-11T14:43:09.113Z,0.70
2023-04-11T14:45:36.373Z,0.60
2023-04-11T14:48:03.146Z,0.55
2023-04-11T14:50:29.900Z,0.57
2023-04-11T14:52:56.404Z,0.63
2023-04-11T14:55:24.205Z,0.75
2023-04-11T14:57:55.843Z,0.90
2023-04-11T15:00:24.550Z,0.70
2023-04-11T15:02:53.772Z,0.68
2023-04-11T15:05:22.610Z,0.70
2023-04-11T15:07:52.496Z,0.52
2023-04-11T15:10:21.389Z,0.70
2023-04-11T15:12:48.462Z,0.95
2023-04-11T15:15:16.045Z,1.33
2023-04-11T15:17:47.740Z,0.77
2023-04-11T15:20:15.066Z,0.50
2023-04-11T15:22:45.936Z,0.60
2023-04-11T15:25:14.340Z,0.60
2023-04-11T15:27:41.871Z,0.80
2023-04-11T15:30:09.901Z,0.60
2023-04-11T15:32:41.687Z,0.65
2023-04-11T15:35:09.229Z,0.82
2023-04-11T15:37:36.015Z,0.80
2023-04-11T15:40:06.231Z,0.90
2023-04-11T15:42:35.299Z,1.00
2023-04-11T15:45:02.444Z,1.10
2023-04-11T15:47:29.242Z,0.82
2023-04-11T15:49:57.288Z,0.80
2023-04-11T15:52:23.958Z,0.80
2023-04-11T15:54:50.585Z,0.70
2023-04-11T15:57:18.413Z,0.88
2023-04-11T15:59:45.680Z,0.75
2023-04-11T16:02:12.491Z,0.70
2023-04-11T16:04:39.779Z,0.85
2023-04-11T16:07:06.848Z,0.88
2023-04-11T16:09:34.658Z,0.80
2023-04-11T16:12:01.796Z,0.80
2023-04-11T16:14:29.257Z,0.43
2023-04-11T16:16:57.472Z,0.82
2023-04-11T16:19:24.124Z,0.68
2023-04-11T16:21:51.258Z,0.60
2023-04-11T16:24:18.908Z,0.52
2023-04-11T16:26:45.684Z,0.63
2023-04-11T16:29:12.341Z,0.93
2023-04-11T16:31:39.009Z,0.88
2023-04-11T16:34:05.632Z,0.75
2023-04-11T16:36:34.580Z,0.52
2023-04-11T16:39:01.846Z,0.50
2023-04-11T16:41:28.524Z,0.52
2023-04-11T16:43:55.405Z,0.85
2023-04-11T16:46:22.156Z,0.63
2023-04-11T16:48:49.225Z,0.75
2023-04-11T16:51:18.310Z,0.70
2023-04-11T16:53:45.976Z,2.80
2023-04-11T16:56:13.450Z,1.80
2023-04-11T16:58:39.930Z,1.20
2023-04-11T17:01:06.925Z,0.82
2023-04-11T17:03:33.708Z,0.90
2023-04-11T17:06:00.792Z,0.70
2023-04-11T17:08:27.498Z,0.90
2023-04-11T17:11:04.028Z,0.68
2023-04-11T17:13:30.656Z,0.77
2023-04-11T17:15:57.196Z,0.80
2023-04-11T17:18:23.681Z,0.68
2023-04-11T17:20:50.157Z,1.00
2023-04-11T17:23:16.662Z,0.70
2023-04-11T17:25:43.435Z,0.55
2023-04-11T17:28:11.001Z,0.85
2023-04-11T17:30:38.576Z,0.80
2023-04-11T17:33:05.103Z,0.80
2023-04-11T17:35:33.139Z,0.88
2023-04-11T17:38:00.696Z,0.57
2023-04-11T17:40:27.838Z,0.80
2023-04-11T17:42:54.701Z,0.70
2023-04-11T17:45:22.337Z,0.80
2023-04-11T17:47:49.184Z,1.10
2023-04-11T17:50:16.875Z,0.77
2023-04-11T17:52:45.028Z,0.70
2023-04-11T17:55:14.326Z,0.82
2023-04-11T17:57:42.262Z,0.80
2023-04-11T18:00:23.166Z,0.50
2023-04-11T18:02:57.543Z,0.70
2023-04-11T18:05:28.246Z,0.65
2023-04-11T18:07:57.311Z,0.90
2023-04-11T18:10:25.901Z,1.05
2023-04-11T18:12:54.793Z,0.80
2023-04-11T18:15:22.256Z,0.90
2023-04-11T18:17:48.944Z,1.55
2023-04-11T18:20:17.030Z,1.23
2023-04-11T18:22:52.611Z,1.10
2023-04-11T18:25:20.159Z,0.90
2023-04-11T18:27:48.202Z,1.50
2023-04-11T18:30:16.367Z,1.38
2023-04-11T18:32:48.864Z,1.35
2023-04-11T18:35:18.276Z,2.17
2023-04-11T18:37:45.179Z,2.25
2023-04-11T18:40:13.761Z,1.83
2023-04-11T18:42:42.055Z,1.92
2023-04-11T18:45:11.231Z,2.55
2023-04-11T18:47:38.830Z,2.47
2023-04-11T18:50:06.891Z,2.90
2023-04-11T18:52:33.616Z,6.50
2023-04-11T18:55:00.917Z,2.28
2023-04-11T18:57:33.413Z,2.00
2023-04-11T19:00:10.711Z,2.47
2023-04-11T19:02:38.644Z,2.78
2023-04-11T19:05:07.980Z,2.90
2023-04-11T19:07:34.754Z,3.20
2023-04-11T19:10:01.257Z,3.10
2023-04-11T19:12:27.934Z,3.08
2023-04-11T19:14:54.465Z,3.47
2023-04-11T19:17:22.540Z,2.95
2023-04-11T19:19:49.037Z,2.67
2023-04-11T19:22:15.926Z,2.63
2023-04-11T19:24:42.678Z,2.38
2023-04-11T19:27:10.755Z,2.67
2023-04-11T19:29:37.285Z,2.50
2023-04-11T19:32:07.042Z,2.67
2023-04-11T19:34:35.179Z,3.17
2023-04-11T19:37:01.746Z,3.00
2023-04-11T19:39:34.732Z,3.72
2023-04-11T19:42:02.510Z,3.60
2023-04-11T19:44:30.466Z,3.45
2023-04-11T19:46:57.019Z,3.28
2023-04-11T19:49:23.557Z,2.88
2023-04-11T19:51:51.149Z,3.75
2023-04-11T19:54:17.912Z,3.78
2023-04-11T19:56:45.442Z,3.50
2023-04-11T19:59:13.592Z,4.38
2023-04-11T20:01:40.597Z,4.22
2023-04-11T20:04:07.338Z,3.83
2023-04-11T20:06:34.868Z,3.05
2023-04-11T20:09:01.938Z,2.10
2023-04-11T20:11:29.576Z,2.53
2023-04-11T20:13:56.640Z,2.15
2023-04-11T20:16:25.392Z,2.22
2023-04-11T20:18:53.488Z,2.17
2023-04-11T20:21:20.171Z,2.03
2023-04-11T20:23:46.665Z,2.10
2023-04-11T20:26:14.178Z,2.20
2023-04-11T20:28:40.900Z,1.88
2023-04-11T20:31:07.397Z,2.40
2023-04-11T20:33:33.903Z,2.45
2023-04-11T20:36:02.658Z,2.15
2023-04-11T20:38:31.228Z,1.98
2023-04-11T20:40:57.925Z,1.98
2023-04-11T20:43:26.482Z,2.35
2023-04-11T20:45:53.245Z,2.13
2023-04-11T20:48:19.937Z,2.40
2023-04-11T20:50:47.630Z,2.50
2023-04-11T20:53:14.610Z,2.60
2023-04-11T20:55:42.269Z,3.10
2023-04-11T20:58:11.028Z,3.00
2023-04-11T21:00:39.870Z,2.80
2023-04-11T21:03:07.803Z,2.85
2023-04-11T21:05:34.880Z,3.03
2023-04-11T21:08:03.873Z,3.05
2023-04-11T21:10:30.320Z,3.40
2023-04-11T21:12:56.861Z,3.28
2023-04-11T21:15:23.576Z,3.35
2023-04-11T21:17:50.714Z,3.10
2023-04-11T21:20:18.122Z,3.15
2023-04-11T21:22:46.526Z,3.40
2023-04-11T21:25:13.337Z,3.13
2023-04-11T21:27:41.625Z,2.63
2023-04-11T21:30:09.579Z,2.42
2023-04-11T21:32:36.136Z,2.30
2023-04-11T21:35:06.267Z,2.33
2023-04-11T21:37:33.087Z,2.92
2023-04-11T21:39:59.639Z,2.97
2023-04-11T21:42:26.223Z,2.65
2023-04-11T21:44:52.809Z,2.20
2023-04-11T21:47:19.357Z,2.53
2023-04-11T21:49:49.151Z,3.00
2023-04-11T21:52:15.969Z,2.38
2023-04-11T21:54:43.580Z,2.78
2023-04-11T21:57:10.808Z,2.72
2023-04-11T21:59:38.123Z,2.20
2023-04-11T22:02:04.954Z,2.40
2023-04-11T22:07:01.284Z,2.20
2023-04-11T22:09:27.979Z,2.45
2023-04-11T22:11:55.599Z,2.38
2023-04-11T22:14:22.215Z,2.55
2023-04-11T22:16:53.109Z,2.15
2023-04-11T22:19:19.646Z,2.75
2023-04-11T22:21:56.218Z,2.10
2023-04-11T22:24:30.169Z,2.20
2023-04-11T22:26:58.390Z,1.75
2023-04-11T22:29:30.451Z,2.22
2023-04-11T22:31:58.218Z,2.15
2023-04-11T22:34:25.585Z,2.30
2023-04-11T22:36:52.271Z,2.22
2023-04-11T22:39:18.957Z,2.30
2023-04-11T22:41:50.545Z,2.25
2023-04-11T22:44:18.047Z,1.88
2023-04-11T22:47:13.514Z,2.10
2023-04-11T22:49:42.993Z,2.03
2023-04-11T22:52:15.103Z,2.05
2023-04-11T22:54:43.101Z,2.40
2023-04-11T22:57:10.443Z,2.20
2023-04-11T22:59:37.205Z,2.17
2023-04-11T23:02:04.040Z,2.08
2023-04-11T23:04:32.219Z,2.50
2023-04-11T23:06:59.442Z,2.60
2023-04-11T23:09:26.516Z,2.55
2023-04-11T23:11:53.495Z,2.47
2023-04-11T23:14:21.163Z,2.60
2023-04-11T23:16:48.314Z,2.67
2023-04-11T23:19:15.046Z,2.53
2023-04-11T23:21:41.552Z,2.72
2023-04-11T23:24:11.636Z,2.70
2023-04-11T23:26:38.313Z,2.67
2023-04-11T23:29:04.857Z,2.60
2023-04-11T23:31:32.640Z,2.97
2023-04-11T23:33:59.338Z,3.05
2023-04-11T23:36:27.450Z,2.50
2023-04-11T23:38:54.134Z,3.00
2023-04-11T23:41:20.776Z,2.58
2023-04-11T23:43:47.584Z,2.53
2023-04-11T23:46:14.517Z,2.60
2023-04-11T23:48:41.179Z,2.17
2023-04-11T23:51:08.238Z,2.67
2023-04-11T23:53:35.064Z,2.50
2023-04-11T23:56:01.721Z,2.70
2023-04-11T23:58:28.297Z,2.35
